createdAt,value
2022-11-29T00:03:37.409Z,13.07
2022-11-29T00:07:40.350Z,11.77
2022-11-29T00:12:01.103Z,12.85
2022-11-29T00:16:05.299Z,11.90
2022-11-29T00:20:11.468Z,12.35
2022-11-29T00:24:14.451Z,13.13
2022-11-29T00:28:17.486Z,12.43
2022-11-29T00:32:20.399Z,12.77
2022-11-29T00:36:25.420Z,11.63
2022-11-29T00:40:28.270Z,11.43
2022-11-29T00:44:31.085Z,12.07
2022-11-29T00:48:34.578Z,11.40
2022-11-29T00:52:38.726Z,11.27
2022-11-29T00:56:41.623Z,11.68
2022-11-29T01:00:44.805Z,10.30
2022-11-29T01:04:47.727Z,11.70
2022-11-29T01:08:52.012Z,11.50
2022-11-29T01:12:55.261Z,11.55
2022-11-29T01:16:58.152Z,12.60
2022-11-29T01:21:03.508Z,12.15
2022-11-29T01:25:09.955Z,12.15
2022-11-29T01:29:13.788Z,12.02
2022-11-29T01:33:16.609Z,13.05
2022-11-29T01:37:19.611Z,12.68
2022-11-29T01:41:25.525Z,12.68
2022-11-29T01:45:28.328Z,13.05
2022-11-29T01:49:35.191Z,13.93
2022-11-29T01:53:38.993Z,12.57
2022-11-29T01:57:44.604Z,13.07
2022-11-29T02:01:47.514Z,12.20
2022-11-29T02:05:53.605Z,14.35
2022-11-29T02:09:56.462Z,12.93
2022-11-29T02:14:16.243Z,13.43
2022-11-29T02:18:25.306Z,13.00
2022-11-29T02:22:33.935Z,13.63
2022-11-29T02:27:04.588Z,13.23
2022-11-29T02:31:49.550Z,14.38
2022-11-29T02:36:19.292Z,13.60
2022-11-29T02:40:38.017Z,13.05
2022-11-29T02:45:00.007Z,12.73
2022-11-29T02:49:14.671Z,12.38
2022-11-29T02:53:23.990Z,11.98
2022-11-29T02:57:34.433Z,11.98
2022-11-29T03:01:46.734Z,12.65
2022-11-29T03:05:56.360Z,14.07
2022-11-29T03:10:06.004Z,16.48
2022-11-29T03:14:18.285Z,16.48
2022-11-29T03:18:34.336Z,16.00
2022-11-29T03:22:46.785Z,17.50
2022-11-29T03:26:57.550Z,17.33
2022-11-29T03:31:07.702Z,17.38
2022-11-29T03:35:15.814Z,17.00
2022-11-29T03:39:21.951Z,15.88
2022-11-29T03:43:34.776Z,14.93
2022-11-29T03:47:43.146Z,15.10
2022-11-29T03:51:59.393Z,15.68
2022-11-29T03:56:03.268Z,17.05
2022-11-29T04:00:10.835Z,15.63
2022-11-29T04:04:47.489Z,15.32
2022-11-29T04:09:19.340Z,14.35
2022-11-29T04:13:53.470Z,13.90
2022-11-29T04:18:20.709Z,12.77
2022-11-29T04:22:44.314Z,13.43
2022-11-29T04:27:21.165Z,13.70
2022-11-29T04:31:38.095Z,14.32
2022-11-29T04:35:58.029Z,14.07
2022-11-29T04:40:35.746Z,14.07
2022-11-29T04:45:08.941Z,15.10
2022-11-29T04:49:26.738Z,13.48
2022-11-29T04:53:48.730Z,13.75
2022-11-29T04:57:58.586Z,14.00
2022-11-29T05:02:09.561Z,14.02
2022-11-29T05:06:24.211Z,15.48
2022-11-29T05:10:34.850Z,14.20
2022-11-29T05:14:51.569Z,13.63
2022-11-29T05:19:08.352Z,13.00
2022-11-29T05:23:27.927Z,13.27
2022-11-29T05:27:44.374Z,12.43
2022-11-29T05:32:05.885Z,11.93
2022-11-29T05:36:18.674Z,12.88
2022-11-29T05:40:45.215Z,11.48
2022-11-29T05:44:54.591Z,11.50
2022-11-29T05:49:05.898Z,10.95
2022-11-29T05:53:17.939Z,11.35
2022-11-29T05:57:37.303Z,11.90
2022-11-29T06:01:53.241Z,12.32
2022-11-29T06:06:00.627Z,14.07
2022-11-29T06:10:07.008Z,12.18
2022-11-29T06:14:20.902Z,14.45
2022-11-29T06:18:49.820Z,14.63
2022-11-29T06:23:12.089Z,15.27
2022-11-29T06:27:31.884Z,15.63
2022-11-29T06:31:40.660Z,15.23
2022-11-29T06:35:51.029Z,17.02
2022-11-29T06:39:55.519Z,16.60
2022-11-29T06:43:58.883Z,16.48
2022-11-29T06:48:04.630Z,17.05
2022-11-29T06:52:20.969Z,17.48
2022-11-29T06:56:30.195Z,17.05
2022-11-29T07:00:43.182Z,18.58
2022-11-29T07:05:03.767Z,16.95
2022-11-29T07:09:14.220Z,17.83
2022-11-29T07:13:18.900Z,19.13
2022-11-29T07:17:28.526Z,17.73
2022-11-29T07:21:45.834Z,18.25
2022-11-29T07:25:58.034Z,19.15
2022-11-29T07:30:12.372Z,19.23
2022-11-29T07:34:22.044Z,19.13
2022-11-29T07:38:40.346Z,19.70
2022-11-29T07:42:56.003Z,17.73
2022-11-29T07:46:58.940Z,17.60
2022-11-29T07:51:02.450Z,16.95
2022-11-29T07:55:06.150Z,16.58
2022-11-29T07:59:12.841Z,16.80
2022-11-29T08:03:16.034Z,16.25
2022-11-29T08:07:18.890Z,16.23
2022-11-29T08:11:21.761Z,16.67
2022-11-29T08:15:26.324Z,17.45
2022-11-29T08:19:29.177Z,16.05
2022-11-29T08:23:32.180Z,15.80
2022-11-29T08:27:36.344Z,15.32
2022-11-29T08:31:40.767Z,15.05
2022-11-29T08:35:43.647Z,15.15
2022-11-29T08:39:46.564Z,15.15
2022-11-29T08:43:49.410Z,15.75
2022-11-29T08:47:53.579Z,16.90
2022-11-29T08:52:17.083Z,16.42
2022-11-29T09:00:46.035Z,14.80
2022-11-29T09:04:50.305Z,14.95
2022-11-29T09:08:56.276Z,15.45
2022-11-29T09:12:59.134Z,16.17
2022-11-29T09:17:02.508Z,17.80
2022-11-29T09:21:09.029Z,17.70
2022-11-29T09:25:11.907Z,18.50
2022-11-29T09:29:16.330Z,18.70
2022-11-29T09:33:19.824Z,18.02
2022-11-29T09:37:24.024Z,20.67
2022-11-29T09:41:46.983Z,21.02
2022-11-29T09:45:56.945Z,20.02
2022-11-29T09:50:20.702Z,19.50
2022-11-29T09:54:37.229Z,21.88
2022-11-29T09:58:48.141Z,22.23
2022-11-29T10:02:55.093Z,22.33
2022-11-29T10:07:03.629Z,20.60
2022-11-29T10:11:18.437Z,21.17
2022-11-29T10:15:24.209Z,19.55
2022-11-29T10:19:32.695Z,20.15
2022-11-29T10:23:39.799Z,17.33
2022-11-29T10:27:44.079Z,17.90
2022-11-29T10:31:49.418Z,16.63
2022-11-29T10:35:56.825Z,15.35
2022-11-29T10:40:04.545Z,15.98
2022-11-29T10:44:13.700Z,16.83
2022-11-29T10:48:19.012Z,17.50
2022-11-29T10:52:23.997Z,16.27
2022-11-29T10:56:29.977Z,17.77
2022-11-29T11:00:48.659Z,17.42
2022-11-29T11:04:52.178Z,18.77
2022-11-29T11:08:57.180Z,17.90
2022-11-29T11:13:04.028Z,17.63
2022-11-29T11:17:26.167Z,18.73
2022-11-29T11:21:29.687Z,18.48
2022-11-29T11:25:35.093Z,18.02
2022-11-29T11:29:39.451Z,39.92
2022-11-29T11:33:47.053Z,19.42
2022-11-29T11:37:57.413Z,21.10
2022-11-29T11:42:17.773Z,18.45
2022-11-29T11:46:20.986Z,18.55
2022-11-29T11:50:30.847Z,19.17
2022-11-29T11:54:34.390Z,16.45
2022-11-29T11:58:40.084Z,17.00
2022-11-29T12:02:45.721Z,15.30
2022-11-29T12:06:53.182Z,16.25
2022-11-29T12:11:06.892Z,16.52
2022-11-29T12:15:18.440Z,16.50
2022-11-29T12:19:26.299Z,16.65
2022-11-29T12:23:39.851Z,17.75
2022-11-29T12:27:42.699Z,17.48
2022-11-29T12:31:57.698Z,18.45
2022-11-29T12:36:15.007Z,16.98
2022-11-29T12:40:24.724Z,16.77
2022-11-29T12:44:38.382Z,16.25
2022-11-29T12:48:50.762Z,17.35
2022-11-29T12:53:03.168Z,16.88
2022-11-29T12:57:14.194Z,16.85
2022-11-29T13:01:23.488Z,15.75
2022-11-29T13:05:42.218Z,17.52
2022-11-29T13:10:04.350Z,17.63
2022-11-29T13:14:41.569Z,17.33
2022-11-29T13:18:43.809Z,17.75
2022-11-29T13:22:54.197Z,17.55
2022-11-29T13:26:58.183Z,18.67
2022-11-29T13:31:06.010Z,17.85
2022-11-29T13:35:19.644Z,17.73
2022-11-29T13:39:36.743Z,17.38
2022-11-29T13:43:45.399Z,18.55
2022-11-29T13:47:54.444Z,17.02
2022-11-29T13:52:05.877Z,18.17
2022-11-29T13:56:15.160Z,17.20
2022-11-29T14:00:33.369Z,17.88
2022-11-29T14:04:41.469Z,18.27
2022-11-29T14:09:22.475Z,17.38
2022-11-29T14:13:30.763Z,17.63
2022-11-29T14:17:46.631Z,17.67
2022-11-29T14:22:20.035Z,18.20
2022-11-29T14:26:28.738Z,19.83
2022-11-29T14:30:51.311Z,19.02
2022-11-29T14:34:59.151Z,20.52
2022-11-29T14:39:21.316Z,19.02
2022-11-29T14:43:30.404Z,19.25
2022-11-29T14:47:38.119Z,18.83
2022-11-29T14:52:01.043Z,20.08
2022-11-29T14:56:42.594Z,19.63
2022-11-29T15:01:10.753Z,19.67
2022-11-29T15:05:18.595Z,18.48
2022-11-29T15:09:22.264Z,19.30
2022-11-29T15:13:31.674Z,17.95
2022-11-29T15:17:42.898Z,18.13
2022-11-29T15:21:54.291Z,17.98
2022-11-29T15:26:01.795Z,17.00
2022-11-29T15:34:37.796Z,15.98
2022-11-29T15:38:46.099Z,15.85
2022-11-29T15:42:52.684Z,15.20
2022-11-29T15:46:55.645Z,16.15
2022-11-29T15:51:20.125Z,16.80
2022-11-29T15:55:23.274Z,16.50
2022-11-29T15:59:33.156Z,16.95
2022-11-29T16:03:38.954Z,17.23
2022-11-29T16:07:44.506Z,18.88
2022-11-29T16:11:48.717Z,19.75
2022-11-29T16:16:11.571Z,17.67
2022-11-29T16:20:24.377Z,18.13
2022-11-29T16:24:28.703Z,20.50
2022-11-29T16:28:35.589Z,20.13
2022-11-29T16:32:43.290Z,20.90
2022-11-29T16:36:46.185Z,19.83
2022-11-29T16:41:05.436Z,19.45
2022-11-29T16:45:34.163Z,19.50
2022-11-29T16:49:37.579Z,20.77
2022-11-29T16:53:42.453Z,20.33
2022-11-29T16:57:47.982Z,20.20
2022-11-29T17:01:51.063Z,20.02
2022-11-29T17:05:54.031Z,22.08
2022-11-29T17:09:57.651Z,20.35
2022-11-29T17:14:01.928Z,20.83
2022-11-29T17:18:04.965Z,20.63
2022-11-29T17:22:07.822Z,22.38
2022-11-29T17:26:10.840Z,21.38
2022-11-29T17:30:15.806Z,21.30
2022-11-29T17:34:18.665Z,22.35
2022-11-29T17:38:21.467Z,20.30
2022-11-29T17:42:25.353Z,21.20
2022-11-29T17:46:31.320Z,20.45
2022-11-29T17:50:34.175Z,21.58
2022-11-29T17:54:37.013Z,22.27
2022-11-29T17:58:40.703Z,21.27
2022-11-29T18:02:44.943Z,21.08
2022-11-29T18:06:49.997Z,22.90
2022-11-29T18:10:53.276Z,23.05
2022-11-29T18:14:56.106Z,22.48
2022-11-29T18:19:01.651Z,23.23
2022-11-29T18:23:07.951Z,21.88
2022-11-29T18:27:11.109Z,22.27
2022-11-29T18:31:16.231Z,20.77
2022-11-29T18:35:20.469Z,20.95
2022-11-29T18:39:24.914Z,21.25
2022-11-29T18:43:27.843Z,23.67
2022-11-29T18:47:32.839Z,23.08
2022-11-29T18:51:38.467Z,24.58
2022-11-29T18:55:41.448Z,21.85
2022-11-29T18:59:44.260Z,24.02
2022-11-29T19:03:50.323Z,22.05
2022-11-29T19:07:54.673Z,21.33
2022-11-29T19:11:57.557Z,22.45
2022-11-29T19:16:01.430Z,22.77
2022-11-29T19:20:04.657Z,23.45
2022-11-29T19:24:14.742Z,22.98
2022-11-29T19:28:18.583Z,23.00
2022-11-29T19:32:21.811Z,22.90
2022-11-29T19:36:26.631Z,24.48
2022-11-29T19:40:31.169Z,23.42
2022-11-29T19:44:54.315Z,21.30
2022-11-29T19:48:58.397Z,21.95
2022-11-29T19:53:01.624Z,22.02
2022-11-29T19:57:06.175Z,23.98
2022-11-29T20:01:10.433Z,23.60
2022-11-29T20:05:14.184Z,21.85
2022-11-29T20:09:17.631Z,22.52
2022-11-29T20:13:22.463Z,20.90
2022-11-29T20:17:25.635Z,20.15
2022-11-29T20:21:30.071Z,19.08
2022-11-29T20:25:35.951Z,20.55
2022-11-29T20:29:40.522Z,18.42
2022-11-29T20:33:44.347Z,18.17
2022-11-29T20:37:55.586Z,18.08
2022-11-29T20:42:10.280Z,17.75
2022-11-29T20:46:15.237Z,17.20
2022-11-29T20:50:23.143Z,17.55
2022-11-29T20:54:27.011Z,17.55
2022-11-29T20:58:30.324Z,17.10
2022-11-29T21:02:34.846Z,18.58
2022-11-29T21:06:39.954Z,18.90
2022-11-29T21:10:42.798Z,20.30
2022-11-29T21:14:46.335Z,19.60
2022-11-29T21:18:49.758Z,20.73
2022-11-29T21:23:01.930Z,21.65
2022-11-29T21:27:05.761Z,21.48
2022-11-29T21:31:12.899Z,19.10
2022-11-29T21:35:16.444Z,20.77
2022-11-29T21:39:20.689Z,21.45
2022-11-29T21:43:50.278Z,20.27
2022-11-29T21:47:46.358Z,20.88
2022-11-29T21:51:49.226Z,21.73
2022-11-29T21:55:58.285Z,19.75
2022-11-29T22:00:01.119Z,21.83
2022-11-29T22:04:04.375Z,22.35
2022-11-29T22:08:09.218Z,21.08
2022-11-29T22:12:34.270Z,21.70
2022-11-29T22:16:41.448Z,21.77
2022-11-29T22:20:47.063Z,22.02
2022-11-29T22:24:50.192Z,22.38
2022-11-29T22:28:54.472Z,22.52
2022-11-29T22:32:57.471Z,22.83
2022-11-29T22:37:00.340Z,22.98
2022-11-29T22:41:05.124Z,23.13
2022-11-29T22:45:09.994Z,24.13
2022-11-29T22:49:12.820Z,23.42
2022-11-29T22:53:15.703Z,23.15
2022-11-29T22:57:20.816Z,22.75
2022-11-29T23:01:29.758Z,24.05
2022-11-29T23:05:34.273Z,22.67
2022-11-29T23:09:37.163Z,23.70
2022-11-29T23:13:42.467Z,24.23
2022-11-29T23:17:47.272Z,23.85
2022-11-29T23:21:50.148Z,24.52
2022-11-29T23:25:52.996Z,23.85
2022-11-29T23:29:55.901Z,23.73
2022-11-29T23:34:00.129Z,22.88
2022-11-29T23:38:03.017Z,22.75
2022-11-29T23:42:07.798Z,22.50
2022-11-29T23:46:15.054Z,22.95
2022-11-29T23:50:19.416Z,23.35
2022-11-29T23:54:22.293Z,24.75
2022-11-29T23:58:25.968Z,23.33
